Decoded Metar for OIKB (BANDAR ABBAS in IRAN) (IATA:BND) | Meteo·Mobile Aviation Weather
aviador You're here:

OIKB Decoded Metar

BANDAR ABBAS in IRAN
Report Time2019-08-19 06:00:00
UTC Time2019-08-19 06:13:56
Flight Rules mvfr MVFR
Wind150° at 12 kt
W.Decomp.*RWY 21: 5.8 kt HW 10.5 kt LCW
Visibility6000 m
Phenomena:N/A
Clouds:Broken 025 Hf
Expected CloudBase > 2,800 ft AGL from Temp-Dew spread
Ceiling2,500 ft
Temp34°C (ISA +19)
Dew Point27°C (67% RH)
Heat Index45.3°C
QNH1005 hPa
Density Alt2,936 ft
Elevation33 ft
Report Wrong Elevation
Raw Report
METAR OIKB 190600Z 15012KT 6000 BKN025 34/27 Q1005 A2970 NOSIG=

Extra information for OIKB:More info

Metar Taf Metar & Taf Last 4 Metars F.Rules Stats Wind Profile Meteogram Temp Stats Airport Information Weather charts Add Link Nearby VenuesMetar ALERT Operation Metar Decoded Social comments